Terminal Aerodrome Forecast
Issued by NWS

Home | Current Version | Previous Version | Text Only | Print | Product List | Glossary On
Versions: 1 2 3 4 5 6 7 8 9 10 11 12 13
000
FTUS44 KOUN 201120
TAFWWR
TAF
KWWR 201120Z 2012/2112 20010KT P6SM SCT250
     FM201400 21014G23KT P6SM FEW080
     FM210000 17012KT P6SM BKN250=

USA.gov is the U.S. government's official web portal to all federal, state and local government web resources and services.